Main page
METAR-TAF:

METAR-TAF

Airports :

Topcliffe, England

RAF Topcliffe

latitude: 54-12N, longitude: 001-23W, elevation: 28 m

Current weather observation

The report was made 57 minutes ago, at 16:50 UTC
Wind 4 kt from the South/Southeast
Temperature 11°C
Humidity 58%
Pressure 1015 hPa
Visibility 10 km or more

METAR: EGXZ 281650Z AUTO 16004KT 9999 OVC050/// 11/03 Q1015

Time: 18:47 (17:47 UTC)

Forecast

The report was made 28 hours and 30 minutes ago, at 13:17 UTC
Forecast valid from 27 at 15 UTC to 27 at 18 UTC
Wind 13 kt from the Northwest
Visibility 10 km or more
Scattered clouds at a height of 3000 ft
Broken clouds at a height of 4500 ft
Probability 30% :
Temporary
from 27 at 15 UTC to 27 at 18 UTC
Wind 15 kt from the North/Northwest with gusts up to 25 kt
Visibility: 4000 m
Scattered clouds at a height of 1800 ft, Towering cumulus.
showers, small hail or snow pellets

TAF: EGXZ 271317Z 2715/2718 32013KT 9999 SCT030 BKN045 PROB30 TEMPO 2715/2718 34015G25KT 4000 SHGS SCT018TCU

Weather observations and forecasts of more than 4000 airports (METAR and TAF reports).

The available stations are represented by yellow and red dots on the map.

Hover mouse over dot to see the name of the station.

Then click to see weather observations and forecasts.

To change the map : click on the green buttons with a black cross to zoom in, on the green button with a dash to zoom out, or on the green arrows for adjacent maps.


METAR-TAF: